Time;durP1;ratioP1;P1;durP2;ratioP2;P2;SDS_P1;SDS_P2;PMS_P1;PMS_P2;Temp;Humidity;BMP_temperature;BMP_pressure;BME280_temperature;BME280_humidity;BME280_pressure;Samples;Min_cycle;Max_cycle;Signal;HPM_P1;HPM_P2
2024/02/08 00:00:10;;;;;;;15.35;4.68;;;4.00;99.90;;;;;;5094221;28;20460;-53
2024/02/08 00:02:36;;;;;;;8.85;4.50;;;3.90;99.90;;;;;;5107521;28;20036;-52
2024/02/08 00:05:02;;;;;;;11.80;4.03;;;3.90;99.90;;;;;;5113213;28;20541;-53
2024/02/08 00:07:28;;;;;;;16.35;4.30;;;4.00;99.90;;;;;;5097404;28;20038;-53
2024/02/08 00:09:55;;;;;;;12.88;4.60;;;4.00;99.90;;;;;;5094109;28;20126;-51
2024/02/08 00:12:21;;;;;;;12.35;4.60;;;4.00;99.90;;;;;;5093941;28;20027;-53
2024/02/08 00:14:49;;;;;;;8.00;3.67;;;4.10;99.90;;;;;;5096759;28;20389;-53
2024/02/08 00:17:20;;;;;;;15.10;4.65;;;4.00;99.90;;;;;;5114381;28;20160;-54
2024/02/08 00:19:48;;;;;;;14.05;4.20;;;4.00;99.90;;;;;;5114262;28;20034;-53
2024/02/08 00:22:15;;;;;;;15.10;4.38;;;4.00;99.90;;;;;;5111470;28;20112;-51
2024/02/08 00:24:41;;;;;;;10.43;4.53;;;4.10;99.90;;;;;;5094116;28;20028;-52
2024/02/08 00:27:06;;;;;;;8.63;3.85;;;4.10;99.90;;;;;;5093973;28;20042;-52
2024/02/08 00:29:32;;;;;;;9.18;3.90;;;4.10;99.90;;;;;;5093645;28;20369;-51
2024/02/08 00:31:59;;;;;;;12.43;4.13;;;4.10;99.90;;;;;;5093831;28;20110;-57
2024/02/08 00:34:26;;;;;;;12.88;4.63;;;4.10;99.90;;;;;;5093510;28;20039;-55
2024/02/08 00:36:52;;;;;;;17.38;4.60;;;4.20;99.90;;;;;;5093878;28;20468;-52
2024/02/08 00:39:18;;;;;;;10.48;3.90;;;4.20;99.90;;;;;;5110237;28;20020;-54
2024/02/08 00:41:50;;;;;;;14.68;4.47;;;4.20;99.90;;;;;;5113940;28;20104;-54
2024/02/08 00:44:19;;;;;;;9.57;3.85;;;4.20;99.90;;;;;;5113858;28;20032;-52
2024/02/08 00:46:45;;;;;;;13.30;4.72;;;4.20;99.90;;;;;;5101208;28;20067;-52
2024/02/08 00:49:10;;;;;;;12.40;4.32;;;4.20;99.90;;;;;;5093332;28;20035;-54
2024/02/08 00:51:36;;;;;;;16.88;4.40;;;4.20;99.90;;;;;;5093303;28;20055;-52
2024/02/08 00:54:02;;;;;;;13.80;4.57;;;4.20;99.90;;;;;;5109377;28;20084;-54
2024/02/08 00:56:28;;;;;;;12.18;5.32;;;4.30;99.90;;;;;;5113655;28;20029;-53
2024/02/08 00:58:54;;;;;;;11.20;4.55;;;4.30;99.90;;;;;;5113899;28;20377;-53
2024/02/08 01:01:19;;;;;;;13.48;5.00;;;4.30;99.90;;;;;;5101908;28;20441;-53
2024/02/08 01:03:45;;;;;;;13.43;4.97;;;4.30;99.90;;;;;;5093159;28;20028;-54
2024/02/08 01:06:12;;;;;;;19.80;4.65;;;4.30;99.90;;;;;;5093177;28;20024;-53
2024/02/08 01:08:38;;;;;;;10.88;4.47;;;4.20;99.90;;;;;;5093133;28;20060;-54
2024/02/08 01:11:04;;;;;;;15.20;5.57;;;4.20;99.90;;;;;;5092946;28;20070;-59
2024/02/08 01:13:31;;;;;;;11.45;5.03;;;4.20;99.90;;;;;;5091895;28;20070;-51
2024/02/08 01:16:00;;;;;;;14.20;5.53;;;4.20;99.90;;;;;;5097757;28;20027;-51
2024/02/08 01:18:26;;;;;;;24.13;5.30;;;4.20;99.90;;;;;;5112896;28;20049;-55
2024/02/08 01:20:52;;;;;;;10.63;4.90;;;4.30;99.90;;;;;;5095775;28;20024;-57
2024/02/08 01:23:18;;;;;;;10.07;4.60;;;4.30;99.90;;;;;;5093260;28;20043;-54
2024/02/08 01:25:46;;;;;;;15.07;5.18;;;4.20;99.90;;;;;;5092970;28;20053;-54
2024/02/08 01:28:13;;;;;;;9.48;4.70;;;4.20;99.90;;;;;;5092917;28;20028;-54
2024/02/08 01:30:38;;;;;;;10.00;4.43;;;4.20;99.90;;;;;;5106587;28;20027;-53
2024/02/08 01:33:11;;;;;;;10.43;4.47;;;4.30;99.90;;;;;;5102163;28;20111;-54
2024/02/08 01:35:39;;;;;;;13.85;5.35;;;4.30;99.90;;;;;;5092864;28;20106;-54
2024/02/08 01:38:06;;;;;;;13.23;4.63;;;4.30;99.90;;;;;;5095090;28;20036;-53
2024/02/08 01:40:32;;;;;;;17.30;4.28;;;4.30;99.90;;;;;;5113091;28;20551;-54
2024/02/08 01:42:57;;;;;;;10.27;4.05;;;4.30;99.90;;;;;;5113159;28;20066;-51
2024/02/08 01:45:33;;;;;;;12.07;4.13;;;4.30;99.90;;;;;;5111080;28;20369;-53
2024/02/08 01:48:10;;;;;;;22.38;5.57;;;4.30;99.90;;;;;;5111328;28;20030;-54
2024/02/08 01:50:44;;;;;;;30.95;5.25;;;4.40;99.90;;;;;;5113284;28;20498;-53
2024/02/08 01:53:15;;;;;;;14.45;4.15;;;4.40;99.90;;;;;;5113034;28;20027;-54
2024/02/08 01:55:49;;;;;;;12.23;3.85;;;4.50;99.90;;;;;;5097347;28;20032;-54
2024/02/08 01:58:15;;;;;;;15.48;4.13;;;4.50;99.90;;;;;;5091405;28;20074;-54
2024/02/08 02:00:48;;;;;;;11.70;3.47;;;4.50;99.90;;;;;;5092844;28;20372;-54
2024/02/08 02:03:15;;;;;;;9.00;4.13;;;4.50;99.90;;;;;;5092275;28;20081;-49
2024/02/08 02:05:48;;;;;;;10.85;4.50;;;4.40;99.90;;;;;;5091371;28;20035;-55
2024/02/08 02:08:22;;;;;;;6.60;4.13;;;4.50;99.90;;;;;;5092587;28;20469;-52
2024/02/08 02:11:00;;;;;;;7.72;3.70;;;4.40;99.90;;;;;;5092407;28;20498;-54
2024/02/08 02:13:26;;;;;;;;;;;4.40;99.90;;;;;;5092922;28;20024;-55
2024/02/08 02:15:52;;;;;;;11.23;3.95;;;4.40;99.90;;;;;;5092366;28;19908;-54
2024/02/08 02:18:18;;;;;;;9.82;4.15;;;4.40;99.90;;;;;;5092404;28;20028;-55
2024/02/08 02:20:43;;;;;;;12.63;4.05;;;4.50;99.90;;;;;;5099243;28;20019;-53
2024/02/08 02:23:09;;;;;;;9.77;3.92;;;4.50;99.90;;;;;;5112737;28;20024;-54
2024/02/08 02:25:38;;;;;;;6.78;3.75;;;4.50;99.90;;;;;;5112730;28;20505;-51
2024/02/08 02:28:08;;;;;;;13.60;4.40;;;4.50;99.90;;;;;;5112558;28;20023;-55
2024/02/08 02:30:35;;;;;;;12.07;4.13;;;4.50;99.90;;;;;;5110687;28;20027;-53
2024/02/08 02:33:05;;;;;;;10.18;4.15;;;4.50;99.90;;;;;;5106348;28;20078;-55
2024/02/08 02:35:32;;;;;;;10.77;3.60;;;4.50;99.90;;;;;;5095832;28;20410;-55
2024/02/08 02:38:02;;;;;;;11.40;3.88;;;4.50;99.90;;;;;;5094670;28;20024;-55
2024/02/08 02:40:30;;;;;;;8.85;4.30;;;4.50;99.90;;;;;;5096058;28;20078;-53
2024/02/08 02:42:56;;;;;;;;;;;4.60;99.90;;;;;;5111317;28;20023;-54
2024/02/08 02:45:23;;;;;;;9.85;3.47;;;4.60;99.90;;;;;;5103138;28;20275;-38
2024/02/08 02:47:53;;;;;;;10.48;4.50;;;4.60;99.90;;;;;;5096906;28;20024;-53
2024/02/08 02:50:28;;;;;;;10.23;4.22;;;4.50;99.90;;;;;;5115665;28;20081;-53
2024/02/08 02:52:54;;;;;;;8.85;4.93;;;4.50;99.90;;;;;;5116048;28;20027;-51
2024/02/08 02:55:22;;;;;;;8.80;3.78;;;4.60;99.90;;;;;;5116095;28;20113;-63
2024/02/08 02:57:48;;;;;;;8.77;3.40;;;4.60;99.90;;;;;;5098214;28;20024;-55
2024/02/08 03:00:21;;;;;;;12.38;4.47;;;4.60;99.90;;;;;;5095385;28;20023;-54
2024/02/08 03:02:57;;;;;;;7.50;3.63;;;4.60;99.90;;;;;;5094205;28;20433;-54
2024/02/08 03:05:24;;;;;;;13.15;3.75;;;4.60;99.90;;;;;;5094606;28;20028;-53
2024/02/08 03:07:52;;;;;;;9.95;4.40;;;4.60;99.90;;;;;;5095309;28;20028;-53
2024/02/08 03:10:21;;;;;;;9.13;4.18;;;4.60;99.90;;;;;;5097260;28;20024;-54
2024/02/08 03:12:49;;;;;;;10.63;4.18;;;4.60;99.90;;;;;;5113848;28;20042;-52
2024/02/08 03:15:16;;;;;;;7.13;3.60;;;4.60;99.90;;;;;;5114120;28;20535;-54
2024/02/08 03:17:43;;;;;;;10.98;5.07;;;4.60;99.90;;;;;;5115667;28;20020;-39
2024/02/08 03:20:11;;;;;;;13.70;3.92;;;4.60;99.90;;;;;;5115569;28;20488;-40
2024/02/08 03:22:36;;;;;;;10.57;4.35;;;4.60;99.90;;;;;;5105088;28;20039;-39
2024/02/08 03:25:05;;;;;;;8.88;3.80;;;4.60;99.90;;;;;;5095034;28;20427;-54
2024/02/08 03:27:34;;;;;;;11.27;3.97;;;4.60;99.90;;;;;;5095062;28;20056;-51
2024/02/08 03:30:02;;;;;;;16.20;4.30;;;4.60;99.90;;;;;;5096997;28;20585;-55
2024/02/08 03:32:31;;;;;;;15.05;3.67;;;4.60;99.90;;;;;;5109605;28;20035;-51
2024/02/08 03:35:25;;;;;;;14.10;3.72;;;4.60;99.90;;;;;;5094747;28;20504;-54
2024/02/08 03:38:00;;;;;;;12.10;3.92;;;4.60;99.90;;;;;;5093515;28;20028;-53
2024/02/08 03:40:31;;;;;;;9.43;3.90;;;4.60;99.90;;;;;;5113248;28;20429;-53
2024/02/08 03:42:57;;;;;;;12.32;4.35;;;4.60;99.90;;;;;;5114722;28;20486;-54
2024/02/08 03:45:23;;;;;;;6.15;3.35;;;4.60;99.90;;;;;;5113266;28;20019;-54
2024/02/08 03:47:50;;;;;;;9.65;4.20;;;4.60;99.90;;;;;;5115316;28;20521;-54
2024/02/08 03:50:16;;;;;;;14.70;4.03;;;4.60;99.90;;;;;;5099780;28;20031;-53
2024/02/08 03:52:42;;;;;;;7.53;3.58;;;4.60;99.90;;;;;;5094726;28;20476;-53
2024/02/08 03:55:08;;;;;;;16.83;3.72;;;4.70;99.90;;;;;;5094439;28;20050;-53
2024/02/08 03:57:36;;;;;;;10.02;3.58;;;4.70;99.90;;;;;;5094415;28;20059;-40
2024/02/08 04:00:04;;;;;;;13.68;3.63;;;4.70;99.90;;;;;;5096262;28;20028;-39
2024/02/08 04:02:34;;;;;;;16.10;3.88;;;4.70;99.90;;;;;;5114968;28;20028;-39
2024/02/08 04:05:05;;;;;;;12.27;3.50;;;4.80;99.90;;;;;;5111357;28;20039;-40
2024/02/08 04:07:57;;;;;;;11.90;4.20;;;4.80;99.90;;;;;;5094545;28;20434;-44
2024/02/08 04:54:32;;;;;;;14.52;4.32;;;4.50;99.90;;;;;;5092343;28;20035;-52
2024/02/08 04:56:59;;;;;;;16.25;5.20;;;4.60;99.90;;;;;;5092042;28;20472;-55
2024/02/08 04:59:26;;;;;;;12.05;4.55;;;4.60;99.90;;;;;;5093144;28;20028;-54
2024/02/08 05:01:53;;;;;;;14.93;5.05;;;4.50;99.90;;;;;;5112963;28;20027;-54
2024/02/08 05:04:20;;;;;;;16.25;5.90;;;4.40;99.90;;;;;;5109115;28;20020;-54
2024/02/08 05:06:47;;;;;;;11.57;4.65;;;4.40;99.90;;;;;;5093610;28;20028;-54
2024/02/08 05:09:19;;;;;;;14.25;3.80;;;4.40;99.90;;;;;;5093202;28;20028;-53
2024/02/08 05:11:45;;;;;;;29.25;6.25;;;4.50;99.90;;;;;;5093323;28;20490;-52
2024/02/08 05:14:11;;;;;;;15.90;4.50;;;4.50;99.90;;;;;;5092945;28;20020;-54
2024/02/08 05:16:37;;;;;;;18.75;4.70;;;4.50;99.90;;;;;;5093287;28;20024;-54
2024/02/08 05:19:10;;;;;;;23.05;4.60;;;4.50;99.90;;;;;;5093289;28;20020;-53
2024/02/08 05:21:41;;;;;;;14.73;4.30;;;4.60;99.90;;;;;;5092839;28;20032;-54
2024/02/08 05:24:12;;;;;;;10.50;3.88;;;4.60;99.90;;;;;;5093120;28;20028;-54
2024/02/08 05:26:40;;;;;;;10.05;4.22;;;4.60;99.90;;;;;;5092971;28;20028;-54
2024/02/08 05:29:08;;;;;;;20.23;3.63;;;4.70;99.90;;;;;;5091507;28;20526;-53
2024/02/08 05:31:39;;;;;;;19.35;4.20;;;4.70;99.90;;;;;;5104334;28;20110;-54
2024/02/08 05:34:10;;;;;;;14.10;4.57;;;4.60;99.90;;;;;;5092582;28;20044;-56
2024/02/08 05:36:39;;;;;;;11.20;3.20;;;4.60;99.90;;;;;;5094585;28;20038;-53
2024/02/08 05:39:05;;;;;;;13.50;4.53;;;4.60;99.90;;;;;;5113446;28;20049;-54
2024/02/08 05:41:33;;;;;;;16.30;3.95;;;4.60;99.90;;;;;;5112798;28;20500;-52
2024/02/08 05:44:05;;;;;;;16.95;5.35;;;4.60;99.90;;;;;;5113117;28;20122;-54
2024/02/08 05:46:37;;;;;;;20.05;3.92;;;4.60;99.90;;;;;;5111324;28;20027;-54
2024/02/08 05:49:14;;;;;;;10.35;3.78;;;4.60;99.90;;;;;;5113011;28;20020;-54
2024/02/08 05:51:46;;;;;;;12.43;3.65;;;4.60;99.90;;;;;;5111252;28;20058;-54
2024/02/08 05:54:16;;;;;;;12.68;3.53;;;4.60;99.90;;;;;;5095040;28;20524;-54
2024/02/08 05:56:43;;;;;;;10.38;3.70;;;4.70;99.90;;;;;;5092748;28;20024;-53
2024/02/08 05:59:09;;;;;;;13.20;3.50;;;4.70;99.90;;;;;;5074759;28;20058;-54
2024/02/08 06:01:47;;;;;;;12.10;4.05;;;4.70;99.90;;;;;;5108235;28;20028;-54
2024/02/08 06:04:22;;;;;;;8.88;3.53;;;4.60;99.90;;;;;;5112983;28;20034;-54
2024/02/08 06:06:53;;;;;;;14.10;3.83;;;4.60;99.90;;;;;;5104593;28;20055;-54
2024/02/08 06:12:16;;;;;;;12.38;4.10;;;4.60;99.90;;;;;;5096386;28;20093;-54
2024/02/08 06:14:42;;;;;;;21.65;3.55;;;4.60;99.90;;;;;;5096339;28;20031;-51
2024/02/08 06:17:11;;;;;;;19.98;3.85;;;4.70;99.90;;;;;;5095010;28;20122;-54
2024/02/08 06:19:50;;;;;;;13.65;3.38;;;4.70;99.90;;;;;;5096331;28;20503;-54
2024/02/08 06:22:20;;;;;;;8.68;2.65;;;4.70;99.90;;;;;;5096606;28;20119;-55
2024/02/08 06:25:08;;;;;;;17.15;3.63;;;4.60;99.90;;;;;;5096779;28;20055;-54
2024/02/08 06:27:37;;;;;;;;;;;4.60;99.90;;;;;;5096795;28;20536;-53
2024/02/08 06:30:09;;;;;;;8.15;3.42;;;4.60;99.90;;;;;;5096089;28;20405;-54
2024/02/08 06:32:43;;;;;;;17.08;3.38;;;4.60;99.90;;;;;;5096256;28;20528;-54
2024/02/08 06:35:19;;;;;;;10.00;3.22;;;4.60;99.90;;;;;;5095844;28;20040;-54
2024/02/08 06:38:03;;;;;;;7.65;3.08;;;4.60;99.90;;;;;;5095919;28;20052;-54
2024/02/08 07:41:12;;;;;;;8.38;2.85;;;4.70;99.90;;;;;;5113833;28;20043;-44
2024/02/08 07:43:43;;;;;;;13.75;2.28;;;4.70;99.90;;;;;;5115152;28;20510;-39
2024/02/08 07:46:16;;;;;;;9.02;2.17;;;4.80;99.90;;;;;;5113638;28;20028;-41
2024/02/08 07:48:44;;;;;;;8.57;2.28;;;4.70;99.90;;;;;;5114916;28;20086;-40
2024/02/08 07:51:15;;;;;;;10.23;2.78;;;4.80;99.90;;;;;;5099435;28;20039;-39
2024/02/08 07:53:54;;;;;;;13.82;1.85;;;4.70;99.90;;;;;;5101912;28;20113;-43
2024/02/08 07:58:56;;;;;;;24.15;3.53;;;4.80;99.90;;;;;;5113415;28;20038;-38
2024/02/08 08:01:30;;;;;;;19.83;2.15;;;4.90;99.90;;;;;;5095007;28;20032;-41
2024/02/08 08:03:56;;;;;;;6.22;2.30;;;5.00;99.90;;;;;;5094369;28;20111;-39
2024/02/08 08:06:25;;;;;;;13.52;2.30;;;5.00;99.90;;;;;;5094308;28;20500;-40
2024/02/08 08:08:57;;;;;;;8.88;2.70;;;5.00;99.90;;;;;;5098110;28;20050;-40
2024/02/08 08:11:31;;;;;;;17.25;2.47;;;5.00;99.90;;;;;;5094170;28;20112;-38
2024/02/08 08:18:59;;;;;;;10.93;2.08;;;5.10;99.90;;;;;;5097635;28;20492;-56
2024/02/08 08:21:29;;;;;;;11.90;1.95;;;5.10;99.90;;;;;;5098549;28;20030;-54
2024/02/08 08:24:02;;;;;;;7.38;1.92;;;5.20;99.90;;;;;;5114342;28;20024;-54
2024/02/08 08:26:39;;;;;;;13.75;2.45;;;5.20;99.90;;;;;;5114571;28;20028;-56
2024/02/08 08:29:13;;;;;;;14.20;2.25;;;5.20;99.90;;;;;;5110929;28;20028;-55
2024/02/08 08:31:54;;;;;;;8.85;2.42;;;5.20;99.90;;;;;;5102020;28;20027;-54
2024/02/08 08:37:02;;;;;;;5.10;1.80;;;5.20;99.90;;;;;;5094145;28;20028;-38
2024/02/08 08:39:46;;;;;;;12.93;2.38;;;5.10;99.90;;;;;;5108912;28;20069;-38
2024/02/08 08:42:16;;;;;;;7.93;2.17;;;5.20;99.90;;;;;;5110474;28;20029;-40
2024/02/08 08:44:48;;;;;;;15.35;1.90;;;5.20;99.90;;;;;;5113980;28;20038;-52
2024/02/08 08:47:15;;;;;;;13.70;2.83;;;5.30;99.90;;;;;;5112668;28;20031;-38
2024/02/08 08:49:42;;;;;;;18.33;2.40;;;5.30;99.90;;;;;;5112013;28;20063;-38
2024/02/08 08:52:09;;;;;;;13.38;3.05;;;5.30;99.90;;;;;;5112285;28;20035;-38
2024/02/08 08:54:36;;;;;;;10.98;2.22;;;5.40;99.90;;;;;;5104186;28;20020;-41
2024/02/08 08:57:12;;;;;;;7.53;2.13;;;5.30;99.90;;;;;;5093321;28;20024;-40
2024/02/08 08:59:42;;;;;;;17.67;2.50;;;5.40;99.90;;;;;;5104365;28;20555;-40
2024/02/08 09:02:09;;;;;;;10.93;2.45;;;5.40;99.90;;;;;;5113634;28;20031;-40
2024/02/08 09:04:36;;;;;;;4.40;2.35;;;5.30;99.90;;;;;;5113551;28;20024;-40
2024/02/08 09:07:13;;;;;;;7.00;2.20;;;5.30;99.90;;;;;;5096090;28;20020;-41
2024/02/08 09:12:39;;;;;;;7.80;2.35;;;5.20;99.90;;;;;;5088028;28;20059;-39
2024/02/08 09:15:19;;;;;;;9.18;2.17;;;5.20;99.90;;;;;;5093676;28;20024;-42
2024/02/08 09:17:51;;;;;;;6.60;2.45;;;5.10;99.90;;;;;;5091946;28;20024;-39
2024/02/08 09:20:20;;;;;;;7.80;2.20;;;5.20;99.90;;;;;;5105950;28;20054;-42
2024/02/08 09:22:49;;;;;;;14.63;3.35;;;5.30;99.90;;;;;;5099927;28;20024;-39
2024/02/08 09:25:19;;;;;;;10.60;1.75;;;5.30;99.90;;;;;;5093258;28;20528;-40
2024/02/08 09:27:47;;;;;;;11.13;2.50;;;5.30;99.90;;;;;;5093122;28;20024;-40
2024/02/08 09:30:15;;;;;;;8.57;2.45;;;5.30;99.90;;;;;;5107249;28;20031;-41
2024/02/08 09:32:44;;;;;;;10.10;1.88;;;5.30;99.90;;;;;;5092869;28;20480;-41
2024/02/08 09:35:13;;;;;;;6.93;2.75;;;5.30;99.90;;;;;;5092683;28;20051;-42
2024/02/08 09:37:47;;;;;;;12.48;2.13;;;5.20;99.90;;;;;;5093007;28;20027;-39
2024/02/08 09:43:16;;;;;;;7.20;2.95;;;5.20;99.90;;;;;;5099756;28;20123;-41
2024/02/08 09:45:46;;;;;;;13.68;2.55;;;5.20;99.90;;;;;;5099435;28;20024;-40
2024/02/08 09:48:25;;;;;;;14.73;2.13;;;5.20;99.90;;;;;;5099467;28;20480;-50
2024/02/08 09:50:59;;;;;;;9.52;2.28;;;5.30;99.90;;;;;;5099734;28;20020;-53
2024/02/08 09:53:27;;;;;;;12.25;2.13;;;5.30;99.90;;;;;;5099560;28;20032;-55
2024/02/08 09:55:58;;;;;;;4.93;1.52;;;5.30;99.90;;;;;;5099148;28;20020;-55
2024/02/08 09:58:33;;;;;;;8.48;2.47;;;5.20;99.90;;;;;;5099535;28;20024;-53
2024/02/08 10:01:22;;;;;;;24.92;2.83;;;5.30;99.90;;;;;;5118695;28;20430;-55
2024/02/08 10:03:48;;;;;;;22.10;2.17;;;5.30;99.90;;;;;;5118030;28;20039;-55
2024/02/08 10:06:24;;;;;;;9.77;1.85;;;5.30;99.90;;;;;;5117383;28;20031;-55
2024/02/08 10:09:08;;;;;;;9.95;2.53;;;5.40;99.90;;;;;;5101704;27;20026;-53
2024/02/08 10:11:43;;;;;;;9.38;3.10;;;5.40;99.90;;;;;;5098107;28;20093;-55
2024/02/08 10:14:25;;;;;;;9.57;2.45;;;5.40;99.90;;;;;;5102396;28;20053;-57
2024/02/08 10:16:58;;;;;;;10.50;2.20;;;5.40;99.90;;;;;;5099279;28;20476;-57
2024/02/08 10:22:00;;;;;;;7.40;2.50;;;5.40;99.90;;;;;;5099300;28;20036;-53
2024/02/08 10:26:17;;;;;;;13.82;2.75;;;5.40;99.90;;;;;;5099357;28;20042;-53
2024/02/08 10:27:20;;;;;;;4.63;1.73;;;5.50;99.90;;;;;;5098871;28;20129;-54
2024/02/08 10:29:56;;;;;;;10.02;2.55;;;5.50;99.90;;;;;;5099288;28;20379;-55
2024/02/08 10:32:27;;;;;;;20.83;2.38;;;5.50;99.90;;;;;;5098750;28;20066;-56
2024/02/08 10:35:13;;;;;;;10.77;2.03;;;5.50;99.90;;;;;;5098773;28;20173;-55
2024/02/08 10:38:07;;;;;;;13.98;2.30;;;5.50;99.90;;;;;;5112149;28;20039;-39
2024/02/08 10:40:34;;;;;;;12.60;2.35;;;5.50;99.90;;;;;;5099288;28;20519;-39
2024/02/08 10:43:16;;;;;;;9.70;2.70;;;5.50;99.90;;;;;;5097655;28;20484;-39
2024/02/08 10:45:53;;;;;;;13.57;3.08;;;5.50;99.90;;;;;;5098838;28;20020;-39
2024/02/08 10:48:23;;;;;;;6.40;2.55;;;5.50;99.90;;;;;;5108255;28;20019;-38
2024/02/08 10:50:52;;;;;;;13.18;2.58;;;5.50;99.90;;;;;;5119038;27;20047;-39
2024/02/08 10:53:43;;;;;;;10.23;2.80;;;5.50;99.90;;;;;;5114683;28;20503;-38
2024/02/08 10:56:14;;;;;;;9.98;3.05;;;5.50;99.90;;;;;;5114275;28;20039;-38
2024/02/08 11:01:37;;;;;;;8.98;3.30;;;5.50;99.90;;;;;;5116214;28;20035;-54
2024/02/08 11:04:28;;;;;;;18.77;4.15;;;5.40;99.90;;;;;;5114167;28;20055;-54
2024/02/08 11:07:06;;;;;;;14.25;4.50;;;5.40;99.90;;;;;;5115843;28;20032;-54
2024/02/08 11:09:35;;;;;;;16.88;4.10;;;5.20;99.90;;;;;;5114036;28;20491;-54
2024/02/08 11:12:18;;;;;;;8.98;2.70;;;5.20;99.90;;;;;;5113823;28;20031;-53
2024/02/08 11:15:13;;;;;;;15.00;3.58;;;5.20;99.90;;;;;;5115842;28;20553;-54
2024/02/08 11:17:49;;;;;;;19.38;3.83;;;5.10;99.90;;;;;;5107970;28;20502;-54
2024/02/08 11:20:44;;;;;;;15.02;3.85;;;5.10;99.90;;;;;;5095272;28;20051;-53
2024/02/08 11:23:18;;;;;;;20.92;4.15;;;5.00;99.90;;;;;;5095044;28;20024;-51
2024/02/08 11:25:44;;;;;;;14.30;3.80;;;5.00;99.90;;;;;;5106686;28;20092;-54
2024/02/08 11:28:13;;;;;;;9.27;3.90;;;5.00;99.90;;;;;;5114493;28;20031;-54
2024/02/08 11:30:40;;;;;;;19.13;4.43;;;5.00;99.90;;;;;;5094885;28;20028;-55
2024/02/08 11:33:12;;;;;;;14.32;4.53;;;5.10;99.90;;;;;;5094707;28;20077;-55
2024/02/08 11:35:45;;;;;;;13.65;3.75;;;5.20;99.90;;;;;;5100361;28;20046;-52
2024/02/08 11:38:24;;;;;;;15.70;4.50;;;5.30;99.90;;;;;;5115246;28;20012;-54
2024/02/08 11:40:50;;;;;;;13.63;3.50;;;5.30;99.90;;;;;;5113449;28;20111;-53
2024/02/08 11:43:23;;;;;;;14.82;4.57;;;5.20;99.90;;;;;;5115415;28;20532;-52
2024/02/08 11:45:53;;;;;;;15.27;4.00;;;5.30;99.90;;;;;;5106943;28;20059;-52
2024/02/08 11:48:26;;;;;;;17.33;4.15;;;5.30;99.90;;;;;;5115040;28;20027;-52
2024/02/08 11:51:09;;;;;;;19.80;4.43;;;5.20;99.90;;;;;;5115029;27;20073;-53
2024/02/08 11:53:36;;;;;;;20.27;3.90;;;5.20;99.90;;;;;;5114675;28;20024;-52
2024/02/08 11:56:08;;;;;;;11.60;3.63;;;5.20;99.90;;;;;;5105009;28;20020;-54
2024/02/08 11:58:47;;;;;;;12.15;5.40;;;5.10;99.90;;;;;;5094377;28;20492;-54
2024/02/08 12:01:14;;;;;;;15.25;3.55;;;5.20;99.90;;;;;;5098015;28;20468;-53
2024/02/08 12:03:50;;;;;;;11.37;4.50;;;5.20;99.90;;;;;;5114208;28;20091;-50
2024/02/08 12:06:21;;;;;;;21.75;4.22;;;5.20;99.90;;;;;;5114794;28;20023;-54
2024/02/08 12:09:07;;;;;;;8.93;3.80;;;5.20;99.90;;;;;;5103098;28;20115;-53
2024/02/08 12:11:34;;;;;;;19.75;4.28;;;5.10;99.90;;;;;;5100404;28;20492;-50
2024/02/08 12:14:06;;;;;;;15.18;4.15;;;5.10;99.90;;;;;;5114886;28;20532;-52
2024/02/08 12:16:38;;;;;;;11.13;3.75;;;5.10;99.90;;;;;;5114784;28;20528;-51
2024/02/08 12:19:09;;;;;;;10.60;3.90;;;5.10;99.90;;;;;;5098528;28;20503;-54
2024/02/08 12:21:35;;;;;;;14.38;4.07;;;5.10;99.90;;;;;;5094781;28;20035;-52
2024/02/08 12:24:04;;;;;;;14.95;5.15;;;5.10;99.90;;;;;;5108896;28;20031;-54
2024/02/08 12:26:33;;;;;;;11.30;3.90;;;5.00;99.90;;;;;;5100534;28;20028;-54
2024/02/08 12:29:03;;;;;;;14.95;3.63;;;4.90;99.90;;;;;;5094118;28;20032;-54
2024/02/08 12:31:31;;;;;;;15.60;4.55;;;4.90;99.90;;;;;;5093704;28;20060;-53
2024/02/08 12:33:59;;;;;;;10.05;3.42;;;4.80;99.90;;;;;;5111112;28;20802;-53
2024/02/08 12:36:30;;;;;;;19.30;4.05;;;4.70;99.90;;;;;;5114484;28;20031;-52
2024/02/08 12:39:00;;;;;;;12.25;4.13;;;4.60;99.90;;;;;;5098172;28;20024;-54
2024/02/08 12:41:29;;;;;;;7.07;3.60;;;4.60;99.90;;;;;;5104619;28;20476;-52
2024/02/08 12:43:56;;;;;;;13.75;3.65;;;4.50;99.90;;;;;;5114049;28;20430;-51
2024/02/08 12:46:22;;;;;;;26.77;4.90;;;4.60;99.90;;;;;;5113898;28;20015;-52
2024/02/08 12:48:48;;;;;;;9.98;3.42;;;4.50;99.90;;;;;;5099543;28;20032;-52
2024/02/08 12:51:23;;;;;;;17.30;4.88;;;4.50;99.90;;;;;;5093433;28;20458;-53
2024/02/08 12:54:02;;;;;;;15.13;4.00;;;4.50;99.90;;;;;;5093401;28;20028;-51
2024/02/08 12:56:27;;;;;;;16.05;5.13;;;4.50;99.90;;;;;;5093660;28;20488;-54
2024/02/08 12:59:04;;;;;;;13.07;4.57;;;4.50;99.90;;;;;;5095021;28;20035;-53
2024/02/08 13:01:38;;;;;;;15.57;5.13;;;4.50;99.90;;;;;;5105735;28;20070;-50
2024/02/08 13:04:06;;;;;;;19.98;5.50;;;4.40;99.90;;;;;;5113572;28;20030;-54
2024/02/08 13:06:32;;;;;;;19.40;5.38;;;4.40;99.90;;;;;;5113684;28;20383;-53
2024/02/08 13:11:48;;;;;;;24.58;4.55;;;4.50;99.90;;;;;;5093126;28;20051;-54
2024/02/08 13:14:18;;;;;;;14.95;4.00;;;4.40;99.90;;;;;;5092621;28;20464;-54
2024/02/08 13:16:44;;;;;;;11.00;3.33;;;4.30;99.90;;;;;;5092846;28;20533;-59
2024/02/08 13:19:13;;;;;;;7.53;3.90;;;4.30;99.90;;;;;;5093144;28;20026;-38
2024/02/08 13:21:46;;;;;;;10.50;3.47;;;4.30;99.90;;;;;;5091714;28;20024;-39
2024/02/08 13:24:12;;;;;;;7.20;2.67;;;4.20;99.90;;;;;;5092963;28;20400;-37
2024/02/08 13:26:37;;;;;;;7.18;3.08;;;4.10;99.90;;;;;;5093016;28;20024;-38
2024/02/08 13:29:03;;;;;;;4.97;2.80;;;4.10;99.90;;;;;;5092947;28;20040;-38
2024/02/08 13:31:29;;;;;;;12.60;2.83;;;4.10;99.90;;;;;;5093001;28;20110;-37
2024/02/08 13:33:55;;;;;;;4.78;2.53;;;4.00;99.90;;;;;;5095571;28;20540;-44
2024/02/08 13:36:25;;;;;;;7.35;3.45;;;4.00;99.90;;;;;;5092877;28;20027;-38
2024/02/08 13:38:51;;;;;;;11.20;2.95;;;4.00;99.90;;;;;;5101801;28;20024;-39
2024/02/08 13:41:17;;;;;;;12.30;3.03;;;4.00;99.90;;;;;;5113385;28;20479;-37
2024/02/08 13:43:46;;;;;;;6.45;2.65;;;4.00;99.90;;;;;;5111688;28;20536;-39
2024/02/08 13:46:13;;;;;;;6.78;2.45;;;3.90;99.90;;;;;;5113179;28;20521;-38
2024/02/08 13:48:39;;;;;;;7.10;3.77;;;3.90;99.90;;;;;;5112988;28;20065;-39
2024/02/08 13:51:07;;;;;;;6.03;2.80;;;3.80;99.90;;;;;;5113008;28;20028;-39
2024/02/08 13:53:36;;;;;;;15.77;2.88;;;3.80;99.90;;;;;;5101156;28;20035;-38
2024/02/08 13:56:07;;;;;;;8.13;2.72;;;3.70;99.90;;;;;;5110948;28;20119;-39
2024/02/08 13:58:36;;;;;;;5.75;2.25;;;3.70;99.90;;;;;;5111690;28;20047;-41
2024/02/08 14:01:03;;;;;;;8.52;2.38;;;3.80;99.90;;;;;;5112696;28;20027;-41
2024/02/08 14:03:29;;;;;;;4.65;2.50;;;3.80;99.90;;;;;;5112997;28;20024;-39
2024/02/08 14:05:55;;;;;;;6.55;2.30;;;3.80;99.90;;;;;;5097035;28;20032;-38
2024/02/08 14:08:23;;;;;;;4.30;2.03;;;3.80;99.90;;;;;;5095193;28;20420;-39
2024/02/08 14:10:49;;;;;;;;;;;3.80;99.90;;;;;;5092953;28;20476;-39
2024/02/08 14:13:16;;;;;;;14.20;2.92;;;3.70;99.90;;;;;;5104456;28;20002;-39
2024/02/08 14:15:48;;;;;;;8.25;1.83;;;3.70;99.90;;;;;;5110997;28;20475;-41
2024/02/08 14:18:22;;;;;;;7.38;2.47;;;3.70;99.90;;;;;;5094199;28;20028;-53
2024/02/08 14:20:56;;;;;;;5.15;1.73;;;3.70;99.90;;;;;;5092517;28;20024;-55
2024/02/08 14:23:59;;;;;;;7.82;1.60;;;3.60;99.90;;;;;;5107773;28;20048;-54
2024/02/08 14:28:46;;;;;;;5.15;2.75;;;3.60;99.90;;;;;;5096208;28;20122;-54
2024/02/08 14:31:13;;;;;;;9.50;2.53;;;3.60;99.90;;;;;;5096095;28;20044;-40
2024/02/08 14:33:45;;;;;;;4.88;2.25;;;3.50;99.90;;;;;;5110802;28;20024;-40
2024/02/08 14:36:12;;;;;;;6.70;2.83;;;3.50;99.90;;;;;;5114753;28;20024;-40
2024/02/08 14:38:48;;;;;;;3.03;1.70;;;3.50;99.90;;;;;;5114192;28;20065;-38
2024/02/08 14:41:32;;;;;;;3.80;2.00;;;3.50;99.90;;;;;;5095775;28;20028;-40
2024/02/08 14:44:08;;;;;;;6.95;2.28;;;3.40;99.90;;;;;;5095879;28;20029;-37
2024/02/08 14:46:41;;;;;;;4.55;1.65;;;3.50;99.90;;;;;;5096086;28;20059;-38
2024/02/08 14:49:17;;;;;;;4.57;1.83;;;3.50;99.90;;;;;;5095975;28;20426;-39
2024/02/08 14:51:47;;;;;;;5.22;1.70;;;3.50;99.90;;;;;;5101694;28;20036;-39
2024/02/08 14:54:14;;;;;;;9.65;1.95;;;3.40;99.90;;;;;;5115161;28;20028;-39
2024/02/08 14:56:42;;;;;;;3.42;1.88;;;3.40;99.90;;;;;;5108403;28;20061;-42
2024/02/08 15:01:52;;;;;;;4.00;1.85;;;3.40;99.90;;;;;;5099626;28;20145;-41
2024/02/08 15:04:22;;;;;;;3.45;1.52;;;3.40;99.90;;;;;;5095543;28;20031;-41
2024/02/08 15:12:10;;;;;;;2.08;1.45;;;3.50;99.90;;;;;;5102512;28;20035;-37
2024/02/08 15:14:36;;;;;;;2.70;1.40;;;3.50;99.90;;;;;;5116083;28;20023;-38
2024/02/08 15:17:10;;;;;;;7.57;1.70;;;3.40;99.90;;;;;;5106387;27;20068;-38
2024/02/08 15:19:46;;;;;;;8.20;2.50;;;3.40;99.90;;;;;;5093994;28;20020;-38
2024/02/08 15:22:46;;;;;;;4.07;1.85;;;3.50;99.90;;;;;;5097389;28;20027;-38
2024/02/08 15:25:07;;;;;;;4.30;2.05;;;3.40;99.90;;;;;;5094849;28;20485;-39
2024/02/08 15:27:47;;;;;;;2.15;1.60;;;3.50;99.90;;;;;;5095364;28;20027;-40
2024/02/08 15:30:16;;;;;;;2.40;1.58;;;3.40;99.90;;;;;;5095274;28;20544;-37